Time;durP1;ratioP1;P1;durP2;ratioP2;P2;SDS_P1;SDS_P2;PMS_P1;PMS_P2;Temp;Humidity;BMP_temperature;BMP_pressure;BME280_temperature;BME280_humidity;BME280_pressure;Samples;Min_cycle;Max_cycle;Signal;HPM_P1;HPM_P2
2021/12/14 00:01:44;;;;;;;23.70;15.20;;;;;;;4.84;56.59;100513.34;3377907;29;20045;-71
2021/12/14 00:03:30;;;;;;;27.10;15.18;;;;;;;4.85;56.51;100515.00;3364049;29;20045;-73
2021/12/14 00:05:16;;;;;;;20.58;13.57;;;;;;;4.84;56.43;100522.09;3364654;29;20131;-71
2021/12/14 00:06:59;;;;;;;23.45;14.07;;;;;;;4.81;56.44;100515.28;3363764;29;20056;-72
2021/12/14 00:08:56;;;;;;;23.63;14.68;;;;;;;4.85;56.47;100520.28;3369902;29;20076;-71
2021/12/14 00:10:50;;;;;;;22.65;13.43;;;;;;;4.85;56.40;100515.00;3385311;29;20048;-72
2021/12/14 00:16:24;;;;;;;24.02;14.43;;;;;;;4.84;56.35;100518.63;3372650;29;20064;-71
2021/12/14 00:18:08;;;;;;;22.85;14.43;;;;;;;4.85;56.27;100521.13;3373756;29;20096;-71
2021/12/14 00:19:52;;;;;;;19.63;13.00;;;;;;;4.84;56.35;100521.28;3374514;29;20275;-71
2021/12/14 00:21:43;;;;;;;23.02;12.98;;;;;;;4.83;56.45;100523.09;3366004;29;20155;-70
2021/12/14 00:25:32;;;;;;;24.85;12.65;;;;;;;4.85;56.18;100525.56;3366989;29;20048;-73
2021/12/14 00:27:18;;;;;;;22.63;13.90;;;;;;;4.82;56.14;100529.31;3384680;29;20522;-72
2021/12/14 00:28:59;;;;;;;22.75;13.27;;;;;;;4.82;56.54;100524.03;3389281;29;20142;-72
2021/12/14 00:30:41;;;;;;;25.58;14.73;;;;;;;4.82;56.31;100524.88;3378848;29;20036;-71
2021/12/14 00:32:26;;;;;;;22.20;12.82;;;;;;;4.84;56.30;100529.19;3372462;29;20040;-73
2021/12/14 00:34:08;;;;;;;22.73;13.50;;;;;;;4.82;56.26;100530.16;3361838;29;20053;-71
2021/12/14 00:35:49;;;;;;;25.05;13.95;;;;;;;4.84;56.24;100529.19;3372391;29;20040;-72
2021/12/14 00:37:36;;;;;;;22.80;13.38;;;;;;;4.85;56.27;100529.06;3374705;29;20048;-71
2021/12/14 00:39:17;;;;;;;22.17;14.45;;;;;;;4.85;56.17;100525.56;3375699;29;20076;-71
2021/12/14 00:41:04;;;;;;;20.52;12.60;;;;;;;4.86;56.19;100529.91;3374554;29;20542;-71
2021/12/14 00:42:46;;;;;;;21.73;13.57;;;;;;;4.85;56.18;100517.66;3375115;29;20044;-72
2021/12/14 00:44:27;;;;;;;24.60;14.38;;;;;;;4.87;56.31;100513.06;3375815;29;20067;-71
2021/12/14 00:46:08;;;;;;;20.75;13.40;;;;;;;4.86;56.16;100522.00;3378982;29;20040;-71
2021/12/14 00:47:49;;;;;;;19.55;14.02;;;;;;;4.87;56.16;100521.84;3388596;29;20048;-71
2021/12/14 00:49:31;;;;;;;22.13;12.65;;;;;;;4.88;56.06;100525.31;3389121;29;20048;-71
2021/12/14 00:51:13;;;;;;;16.13;11.48;;;;;;;4.86;56.13;100516.69;3388456;29;20111;-71
2021/12/14 00:52:53;;;;;;;17.48;11.90;;;;;;;4.88;56.19;100520.88;3387849;29;20112;-71
2021/12/14 00:54:35;;;;;;;18.95;12.35;;;;;;;4.87;56.18;100518.34;3388600;29;20463;-71
2021/12/14 00:56:20;;;;;;;23.20;13.63;;;;;;;4.88;56.13;100525.31;3372781;29;20049;-71
2021/12/14 00:58:05;;;;;;;23.27;13.32;;;;;;;4.87;56.17;100521.84;3361877;29;20048;-70
2021/12/14 00:59:45;;;;;;;24.20;14.00;;;;;;;4.87;56.46;100518.34;3361864;29;20052;-70
2021/12/14 01:01:32;;;;;;;19.30;12.73;;;;;;;4.90;56.13;100521.56;3372022;29;20127;-72
2021/12/14 01:03:13;;;;;;;21.05;12.00;;;;;;;4.91;56.15;100520.59;3361984;29;20049;-73
2021/12/14 01:05:00;;;;;;;22.95;14.10;;;;;;;4.91;56.11;100519.78;3371636;29;20041;-73
2021/12/14 01:06:45;;;;;;;19.95;12.38;;;;;;;4.92;56.05;100526.72;3372312;29;20141;-74
2021/12/14 01:08:28;;;;;;;20.63;13.27;;;;;;;4.93;56.18;100523.09;3372432;29;20528;-73
2021/12/14 01:10:15;;;;;;;21.92;12.25;;;;;;;4.93;56.27;100517.81;3374467;29;20501;-72
2021/12/14 01:12:05;;;;;;;24.50;13.60;;;;;;;4.92;56.24;100519.63;3375262;29;20060;-72
2021/12/14 01:13:57;;;;;;;23.88;13.88;;;;;;;4.94;56.15;100519.50;3374757;29;20056;-72
2021/12/14 01:17:53;;;;;;;22.67;13.40;;;;;;;4.95;56.04;100521.97;3375092;29;20426;-71
2021/12/14 01:19:38;;;;;;;24.15;12.40;;;;;;;4.95;56.10;100516.69;3374975;29;20474;-72
2021/12/14 01:23:28;;;;;;;25.83;13.88;;;;;;;4.93;56.17;100504.59;3375094;29;20056;-71
2021/12/14 01:25:34;;;;;;;19.10;12.82;;;;;;;4.98;56.27;100505.88;3375895;29;20040;-71
2021/12/14 01:27:22;;;;;;;25.38;13.82;;;;;;;4.94;56.10;100501.00;3363010;29;20097;-71
2021/12/14 01:29:06;;;;;;;27.55;14.80;;;;;;;4.94;56.26;100508.91;3361227;29;20122;-71
2021/12/14 01:31:07;;;;;;;27.15;16.20;;;;;;;4.93;56.33;100512.53;3372411;29;20527;-71
2021/12/14 01:32:49;;;;;;;30.48;15.65;;;;;;;4.93;55.84;100507.22;3360975;29;20041;-72
2021/12/14 01:34:32;;;;;;;;;;;;;;;5.03;55.87;100508.06;3363418;29;20091;-72
2021/12/14 01:40:18;;;;;;;24.65;13.90;;;;;;;4.90;55.97;100504.88;3365215;29;20501;-74
2021/12/14 01:42:06;;;;;;;23.42;13.73;;;;;;;4.92;56.15;100514.34;3400634;29;20491;-72
2021/12/14 01:43:53;;;;;;;25.60;15.07;;;;;;;4.90;56.06;100504.88;3376723;29;20432;-73
2021/12/14 01:45:36;;;;;;;23.42;13.77;;;;;;;4.90;56.07;100510.16;3375280;29;20460;-74
2021/12/14 01:47:26;;;;;;;22.63;14.60;;;;;;;4.92;56.10;100508.22;3378840;29;20149;-73
2021/12/14 01:49:26;;;;;;;30.60;15.00;;;;;;;4.92;56.12;100506.41;3386946;29;20044;-74
2021/12/14 01:51:48;;;;;;;21.23;13.73;;;;;;;4.94;56.02;100504.47;3370069;29;20173;-74
2021/12/14 01:53:43;;;;;;;22.42;14.30;;;;;;;4.94;55.92;100498.34;3385247;29;20397;-73
2021/12/14 01:55:28;;;;;;;23.48;13.25;;;;;;;4.93;56.34;100502.81;3371054;29;20057;-72
2021/12/14 01:57:12;;;;;;;23.35;14.43;;;;;;;4.92;55.90;100501.13;3380874;29;20051;-72
2021/12/14 01:58:57;;;;;;;21.95;13.52;;;;;;;4.93;56.01;100508.09;3359384;29;20457;-74
2021/12/14 02:00:55;;;;;;;22.65;13.90;;;;;;;4.97;56.03;100503.34;3370348;29;20045;-74
2021/12/14 02:02:42;;;;;;;24.65;13.98;;;;;;;4.95;55.96;100505.28;3350422;29;20057;-72
2021/12/14 02:04:26;;;;;;;24.25;15.05;;;;;;;4.95;55.97;100505.28;3369624;29;20044;-71
2021/12/14 02:06:12;;;;;;;25.48;14.82;;;;;;;4.95;56.08;100503.47;3358870;29;20127;-72
2021/12/14 02:07:56;;;;;;;23.08;14.13;;;;;;;4.94;55.88;100508.91;3370138;29;20100;-71
2021/12/14 02:09:38;;;;;;;21.52;14.18;;;;;;;4.95;55.99;100500.84;3375106;29;20044;-71
2021/12/14 02:11:19;;;;;;;23.08;14.27;;;;;;;4.95;56.22;100505.28;3373989;29;20508;-71
2021/12/14 02:13:01;;;;;;;19.48;13.27;;;;;;;4.95;56.03;100500.00;3371117;29;20048;-72
2021/12/14 02:14:46;;;;;;;23.30;14.10;;;;;;;4.96;56.01;100496.41;3372072;29;20139;-72
2021/12/14 02:16:27;;;;;;;;;;;;;;;5.08;55.77;100500.56;3372289;29;20048;-71
2021/12/14 02:18:14;;;;;;;21.65;13.65;;;;;;;4.98;55.73;100492.66;3357368;29;19919;-71
2021/12/14 02:19:56;;;;;;;21.92;13.52;;;;;;;4.96;55.77;100491.13;3368475;29;20041;-72
2021/12/14 02:21:37;;;;;;;22.92;12.70;;;;;;;4.97;55.87;100490.16;3357723;29;20463;-72
2021/12/14 02:23:20;;;;;;;23.60;14.07;;;;;;;4.97;55.84;100487.50;3368526;29;20436;-73
2021/12/14 02:25:03;;;;;;;25.15;13.95;;;;;;;4.96;55.84;100491.13;3370735;29;20123;-72
2021/12/14 02:26:44;;;;;;;24.80;13.85;;;;;;;4.96;55.83;100488.50;3371241;29;20389;-74
2021/12/14 02:28:26;;;;;;;25.73;14.63;;;;;;;4.98;55.87;100494.44;3372102;29;20048;-72
2021/12/14 02:30:11;;;;;;;23.75;14.10;;;;;;;4.97;55.76;100500.72;3372005;29;20433;-73
2021/12/14 02:31:56;;;;;;;23.00;14.38;;;;;;;4.97;55.87;100503.34;3371137;29;20085;-72
2021/12/14 02:33:39;;;;;;;27.63;13.90;;;;;;;4.97;55.69;100501.53;3363459;29;20540;-73
2021/12/14 02:35:24;;;;;;;25.63;14.48;;;;;;;4.97;55.81;100498.91;3371990;29;20127;-73
2021/12/14 02:37:05;;;;;;;24.67;14.00;;;;;;;4.97;55.58;100503.34;3379858;29;20130;-74
2021/12/14 02:38:53;;;;;;;25.42;13.93;;;;;;;4.98;55.82;100499.72;3390295;29;20051;-72
2021/12/14 02:40:54;;;;;;;22.25;14.80;;;;;;;4.98;55.70;100500.59;3375906;29;20504;-72
2021/12/14 02:42:39;;;;;;;19.25;12.00;;;;;;;5.00;55.75;100497.78;3387308;29;20048;-72
2021/12/14 02:44:20;;;;;;;26.02;15.52;;;;;;;4.99;55.68;100498.78;3373540;29;20044;-72
2021/12/14 02:46:17;;;;;;;23.98;13.27;;;;;;;4.98;55.69;100494.44;3373245;29;20172;-73
2021/12/14 02:47:59;;;;;;;21.67;13.57;;;;;;;4.98;55.64;100499.72;3374946;29;20143;-74
2021/12/14 02:49:40;;;;;;;22.38;13.77;;;;;;;4.98;55.61;100497.09;3373174;29;20040;-72
2021/12/14 02:51:29;;;;;;;28.75;15.90;;;;;;;4.98;55.59;100489.16;3376719;29;20052;-73
2021/12/14 02:53:12;;;;;;;24.58;13.30;;;;;;;4.97;55.59;100498.06;3376208;29;20096;-73
2021/12/14 02:55:00;;;;;;;25.08;13.20;;;;;;;4.97;55.67;100498.91;3376011;29;20047;-73
2021/12/14 02:56:48;;;;;;;25.05;13.63;;;;;;;4.97;55.52;100487.50;3363417;29;20485;-73
2021/12/14 02:58:28;;;;;;;21.20;12.82;;;;;;;4.97;55.58;100487.50;3385094;29;20095;-73
2021/12/14 03:00:24;;;;;;;23.88;12.65;;;;;;;4.98;55.73;100481.25;3376182;29;20048;-72
2021/12/14 03:02:10;;;;;;;20.27;13.45;;;;;;;5.00;55.48;100487.22;3376622;29;20044;-74
2021/12/14 03:03:51;;;;;;;22.52;13.15;;;;;;;4.98;55.64;100478.59;3379619;29;20416;-71
2021/12/14 03:05:36;;;;;;;21.90;12.52;;;;;;;4.99;55.52;100486.41;3372938;29;20044;-73
2021/12/14 03:07:21;;;;;;;23.10;14.18;;;;;;;4.98;55.60;100489.16;3371954;29;20079;-73
2021/12/14 03:09:15;;;;;;;21.92;13.18;;;;;;;4.97;55.49;100484.88;3374770;29;20100;-72
2021/12/14 03:11:10;;;;;;;17.90;11.75;;;;;;;4.97;55.61;100477.78;3375366;29;20493;-73
2021/12/14 03:12:54;;;;;;;18.20;12.43;;;;;;;4.97;55.58;100477.78;3367353;29;20060;-72
2021/12/14 03:14:36;;;;;;;23.08;12.35;;;;;;;4.95;55.42;100484.16;3363146;29;20063;-73
2021/12/14 03:16:25;;;;;;;21.08;12.63;;;;;;;4.94;55.58;100483.34;3375412;29;20135;-71
2021/12/14 03:18:09;;;;;;;21.00;12.85;;;;;;;4.93;55.49;100492.25;3374268;29;20051;-72
2021/12/14 03:19:59;;;;;;;22.08;12.55;;;;;;;4.93;55.63;100489.59;3374945;29;20045;-71
2021/12/14 03:21:45;;;;;;;21.30;13.40;;;;;;;4.92;55.58;100498.47;3375165;29;20052;-72
2021/12/14 03:23:33;;;;;;;20.42;11.90;;;;;;;4.93;55.58;100499.31;3375570;29;20131;-72
2021/12/14 03:25:15;;;;;;;25.60;13.63;;;;;;;4.91;55.54;100501.28;3376248;29;20044;-72
2021/12/14 03:26:57;;;;;;;21.67;13.07;;;;;;;4.92;55.58;100501.13;3362636;29;20080;-73
2021/12/14 03:28:39;;;;;;;24.42;14.20;;;;;;;4.91;55.42;100503.91;3372873;29;20052;-72
2021/12/14 03:30:31;;;;;;;25.60;15.38;;;;;;;4.95;55.74;100500.00;3385743;29;20086;-72
2021/12/14 03:32:12;;;;;;;22.75;12.57;;;;;;;4.92;55.62;100500.28;3374304;29;20444;-72
2021/12/14 03:34:30;;;;;;;22.88;13.10;;;;;;;4.93;55.57;100505.44;3372890;29;20158;-73
2021/12/14 03:36:15;;;;;;;18.67;11.15;;;;;;;4.93;55.59;100496.66;3370944;29;20484;-74
2021/12/14 03:38:09;;;;;;;25.75;13.88;;;;;;;4.94;55.51;100496.53;3373551;29;20056;-75
2021/12/14 03:39:53;;;;;;;20.38;12.38;;;;;;;4.92;55.52;100480.00;3387272;29;20044;-75
2021/12/14 03:41:46;;;;;;;21.15;13.40;;;;;;;4.93;55.41;100491.38;3374776;29;20052;-74
2021/12/14 03:43:29;;;;;;;19.63;12.10;;;;;;;4.90;55.31;100487.22;3387138;29;20044;-72
2021/12/14 03:45:14;;;;;;;21.73;13.18;;;;;;;4.91;55.79;100488.91;3362119;29;20041;-71
2021/12/14 03:47:15;;;;;;;17.65;12.30;;;;;;;4.94;55.59;100490.44;3371079;29;20500;-72
2021/12/14 03:48:58;;;;;;;19.65;11.38;;;;;;;4.91;55.29;100490.72;3362357;29;20048;-72
2021/12/14 03:50:41;;;;;;;22.85;13.50;;;;;;;4.89;55.44;100490.84;3359665;29;20041;-74
2021/12/14 03:52:26;;;;;;;17.00;10.70;;;;;;;4.88;55.30;100489.19;3370548;29;20052;-73
2021/12/14 03:54:10;;;;;;;24.90;12.52;;;;;;;4.89;55.41;100493.47;3373064;29;20055;-74
2021/12/14 03:55:57;;;;;;;19.17;12.18;;;;;;;4.91;55.42;100493.34;3372691;29;20041;-74
2021/12/14 03:57:38;;;;;;;21.75;12.73;;;;;;;4.90;55.61;100492.50;3375713;29;20048;-74
2021/12/14 03:59:26;;;;;;;23.42;13.13;;;;;;;4.90;55.38;100497.78;3374903;29;20048;-74
2021/12/14 04:01:13;;;;;;;18.90;11.68;;;;;;;4.91;55.44;100493.34;3385679;29;20135;-74
2021/12/14 04:03:05;;;;;;;20.85;12.02;;;;;;;4.90;55.22;100491.66;3374029;29;20442;-74
2021/12/14 04:05:09;;;;;;;19.45;11.65;;;;;;;4.89;55.38;100487.38;3374683;29;20049;-73
2021/12/14 04:06:55;;;;;;;20.98;12.65;;;;;;;4.91;55.23;100493.34;3361872;29;20389;-73
2021/12/14 04:08:36;;;;;;;19.67;11.55;;;;;;;4.89;55.18;100496.13;3374136;29;20044;-72
2021/12/14 04:10:25;;;;;;;21.67;13.80;;;;;;;4.89;55.18;100500.56;3374644;29;20124;-73
2021/12/14 04:12:08;;;;;;;21.95;11.75;;;;;;;4.88;55.30;100493.59;3385965;29;20171;-72
2021/12/14 04:13:54;;;;;;;16.60;10.85;;;;;;;4.88;55.29;100493.59;3374558;29;20052;-72
2021/12/14 04:15:47;;;;;;;18.92;11.30;;;;;;;4.86;55.19;100480.56;3374472;29;20392;-71
2021/12/14 04:17:29;;;;;;;19.95;11.85;;;;;;;4.89;55.55;100490.00;3373548;29;20040;-72
2021/12/14 04:19:14;;;;;;;21.63;14.93;;;;;;;4.87;55.42;100491.94;3359965;29;20048;-71
2021/12/14 04:20:55;;;;;;;20.08;11.68;;;;;;;4.88;55.37;100493.59;3370275;29;20064;-71
2021/12/14 04:22:38;;;;;;;22.40;12.38;;;;;;;4.87;55.23;100492.78;3371972;29;20096;-72
2021/12/14 04:24:27;;;;;;;21.05;12.45;;;;;;;4.88;55.29;100498.88;3375230;29;20080;-71
2021/12/14 04:26:11;;;;;;;18.50;10.55;;;;;;;4.86;55.14;100500.84;3374499;29;20117;-72
2021/12/14 04:27:54;;;;;;;23.40;12.05;;;;;;;4.82;55.25;100493.19;3372151;29;20083;-73
2021/12/14 04:29:36;;;;;;;24.70;13.98;;;;;;;4.88;55.40;100504.16;3375771;29;20044;-72
2021/12/14 04:31:22;;;;;;;21.98;13.52;;;;;;;4.86;55.40;100506.97;3361853;29;20495;-72
2021/12/14 04:33:07;;;;;;;22.13;12.57;;;;;;;4.87;55.35;100508.63;3370621;29;20135;-73
2021/12/14 04:34:52;;;;;;;24.88;12.55;;;;;;;4.88;55.32;100504.16;3372072;29;20056;-70
2021/12/14 04:36:34;;;;;;;19.20;12.13;;;;;;;4.88;55.30;100510.31;3385205;29;20052;-72
2021/12/14 04:38:26;;;;;;;18.10;11.73;;;;;;;4.88;55.39;100515.59;3377441;29;20044;-74
2021/12/14 04:40:36;;;;;;;;;;;;;;;5.00;55.24;100518.94;3374792;29;20072;-72
2021/12/14 04:52:29;;;;;;;16.45;10.70;;;;;;;4.89;55.29;100517.25;3374037;29;20048;-73
2021/12/14 04:54:10;;;;;;;22.75;12.20;;;;;;;4.88;55.16;100514.72;3372647;29;20127;-74
2021/12/14 04:55:54;;;;;;;18.00;10.23;;;;;;;4.89;55.29;100521.72;3371291;29;20051;-75
2021/12/14 04:57:44;;;;;;;18.75;11.20;;;;;;;4.90;55.16;100520.72;3358505;29;20555;-75
2021/12/14 04:59:30;;;;;;;21.75;12.43;;;;;;;4.87;55.21;100513.06;3371707;29;20080;-74
2021/12/14 05:01:14;;;;;;;19.67;10.93;;;;;;;4.87;55.39;100524.47;3372083;29;20052;-73
2021/12/14 05:02:59;;;;;;;21.33;10.75;;;;;;;4.86;55.65;100520.16;3371676;29;20043;-72
2021/12/14 05:04:46;;;;;;;28.20;12.83;;;;;;;4.89;56.01;100524.34;3372934;29;20044;-72
2021/12/14 05:06:44;;;;;;;22.27;10.70;;;;;;;4.88;56.58;100522.66;3360923;29;20040;-73
2021/12/14 05:10:17;;;;;;;24.25;11.13;;;;;;;4.88;57.34;100527.94;3374142;29;20048;-73
2021/12/14 05:12:14;;;;;;;19.83;10.93;;;;;;;4.87;57.53;100534.22;3372320;29;20100;-73
2021/12/14 05:14:06;;;;;;;19.50;11.38;;;;;;;4.82;57.46;100527.50;3373951;29;20048;-72
2021/12/14 05:15:55;;;;;;;21.35;11.18;;;;;;;4.81;57.57;100523.22;3372681;29;20519;-76
2021/12/14 05:17:38;;;;;;;22.65;12.13;;;;;;;4.81;57.83;100525.84;3345961;29;20457;-75
2021/12/14 05:19:22;;;;;;;;;;;;;;;4.92;57.64;100526.72;3356980;29;20044;-76
2021/12/14 05:21:02;;;;;;;17.90;10.40;;;;;;;4.84;57.50;100526.56;3371400;29;19930;-74
2021/12/14 05:22:46;;;;;;;19.23;11.73;;;;;;;4.81;57.64;100525.03;3358468;29;20047;-75
2021/12/14 05:24:30;;;;;;;18.98;10.85;;;;;;;4.78;57.94;100530.59;3369482;29;20048;-76
2021/12/14 05:26:16;;;;;;;21.17;11.40;;;;;;;4.79;58.05;100532.25;3374873;29;20052;-76
2021/12/14 05:28:00;;;;;;;23.52;12.35;;;;;;;4.80;58.52;100533.91;3374124;29;20571;-75
2021/12/14 05:29:45;;;;;;;20.15;11.38;;;;;;;4.84;58.68;100545.06;3372731;29;20521;-81
2021/12/14 05:31:26;;;;;;;19.38;11.38;;;;;;;4.85;58.97;100542.25;3371754;29;20044;-80
2021/12/14 05:33:13;;;;;;;18.88;11.23;;;;;;;4.90;58.91;100539.22;3384761;29;20451;-76
2021/12/14 05:34:58;;;;;;;22.23;11.27;;;;;;;4.93;58.77;100538.94;3373490;29;20588;-79
2021/12/14 05:36:43;;;;;;;21.17;11.18;;;;;;;4.97;58.70;100543.81;3348975;29;20044;-77
2021/12/14 05:38:43;;;;;;;19.42;11.00;;;;;;;5.00;58.79;100551.44;3371620;29;20044;-75
2021/12/14 05:44:39;;;;;;;17.45;10.52;;;;;;;5.07;59.06;100541.19;3361866;29;20624;-76
2021/12/14 05:46:21;;;;;;;21.98;11.45;;;;;;;5.05;58.80;100543.13;3374183;29;20136;-76
2021/12/14 05:48:38;;;;;;;18.05;10.13;;;;;;;5.05;58.67;100543.13;3373934;29;20594;-76
2021/12/14 05:50:23;;;;;;;16.85;11.20;;;;;;;5.03;58.85;100543.28;3372250;29;20420;-75
2021/12/14 05:52:13;;;;;;;25.17;11.10;;;;;;;5.06;59.12;100549.25;3380381;29;20052;-76
2021/12/14 05:53:56;;;;;;;17.30;10.00;;;;;;;5.04;58.96;100541.47;3385817;29;20040;-76
2021/12/14 05:55:40;;;;;;;17.88;10.40;;;;;;;5.03;58.85;100537.13;3384446;29;20048;-76
2021/12/14 05:57:25;;;;;;;22.15;11.30;;;;;;;5.05;59.02;100542.28;3388327;29;20399;-76
2021/12/14 05:59:06;;;;;;;22.55;10.68;;;;;;;5.05;58.84;100548.41;3387198;29;20052;-76
2021/12/14 06:00:58;;;;;;;17.90;10.48;;;;;;;5.05;59.06;100548.41;3387012;29;20055;-76
2021/12/14 06:02:39;;;;;;;18.60;10.77;;;;;;;5.02;59.09;100543.41;3385258;29;20439;-75
2021/12/14 06:04:20;;;;;;;17.25;10.93;;;;;;;5.01;58.74;100541.75;3378190;29;20072;-75
2021/12/14 06:06:02;;;;;;;17.42;9.68;;;;;;;5.03;58.83;100540.63;3373392;29;20040;-73
2021/12/14 06:07:44;;;;;;;16.65;10.50;;;;;;;5.03;58.67;100545.91;3372304;29;20124;-74
2021/12/14 06:09:29;;;;;;;15.32;10.38;;;;;;;5.02;58.77;100540.75;3377130;29;20051;-74
2021/12/14 06:11:21;;;;;;;20.08;11.05;;;;;;;5.03;58.84;100542.41;3376431;29;20470;-75
2021/12/14 06:13:02;;;;;;;;;;;;;;;5.13;58.41;100542.44;3374218;29;20040;-75
2021/12/14 06:14:52;;;;;;;;;;;;;;;5.15;58.21;100543.97;3374756;29;19953;-73
2021/12/14 06:16:36;;;;;;;15.95;9.32;;;;;;;5.05;58.24;100539.66;3374871;29;19923;-74
2021/12/14 06:18:23;;;;;;;18.20;10.88;;;;;;;5.03;58.54;100547.69;3377395;29;20063;-75
2021/12/14 06:20:24;;;;;;;20.98;11.38;;;;;;;5.01;58.94;100547.84;3375673;29;20476;-76
2021/12/14 06:22:13;;;;;;;18.55;11.40;;;;;;;4.99;59.03;100544.50;3369575;29;20105;-75
2021/12/14 06:24:06;;;;;;;20.10;11.32;;;;;;;5.00;59.41;100550.63;3361453;29;20143;-76
2021/12/14 06:25:56;;;;;;;19.27;10.85;;;;;;;4.98;58.92;100552.56;3376174;29;20058;-75
2021/12/14 06:27:38;;;;;;;19.02;11.93;;;;;;;4.98;59.11;100549.91;3373762;29;20051;-75
2021/12/14 06:29:25;;;;;;;17.50;11.30;;;;;;;4.96;59.15;100543.97;3375950;29;20045;-76
2021/12/14 06:31:07;;;;;;;21.13;11.30;;;;;;;4.96;59.07;100549.25;3374051;29;20056;-74
2021/12/14 06:32:58;;;;;;;19.67;11.53;;;;;;;5.01;59.22;100557.59;3373610;29;20140;-75
2021/12/14 06:34:44;;;;;;;21.13;12.77;;;;;;;5.00;59.12;100553.28;3384967;29;20333;-75
2021/12/14 06:37:03;;;;;;;23.48;14.38;;;;;;;5.02;59.44;100554.81;3391253;29;20054;-76
2021/12/14 06:38:46;;;;;;;22.05;11.30;;;;;;;4.99;59.33;100541.88;3393457;29;20054;-75
2021/12/14 06:40:44;;;;;;;21.33;12.13;;;;;;;4.98;59.48;100542.00;3380669;29;20056;-75
2021/12/14 06:42:24;;;;;;;19.60;11.35;;;;;;;4.99;59.21;100539.22;3392256;29;20044;-74
2021/12/14 06:44:05;;;;;;;20.88;10.15;;;;;;;5.00;59.23;100543.53;3380608;29;20439;-74
2021/12/14 06:45:59;;;;;;;18.52;10.90;;;;;;;5.03;59.24;100540.63;3376670;29;20594;-76
2021/12/14 06:47:46;;;;;;;19.88;11.45;;;;;;;5.01;59.11;100547.03;3375330;29;20133;-74
2021/12/14 06:49:26;;;;;;;22.33;12.60;;;;;;;5.03;59.07;100545.06;3374711;29;20047;-74
2021/12/14 06:51:18;;;;;;;22.88;12.15;;;;;;;5.06;59.19;100547.44;3372538;29;20428;-75
2021/12/14 06:53:10;;;;;;;19.33;12.02;;;;;;;5.07;59.11;100549.13;3375616;29;20136;-76
2021/12/14 06:55:25;;;;;;;23.33;13.95;;;;;;;5.11;58.95;100553.16;3375790;29;20156;-76
2021/12/14 06:57:24;;;;;;;20.13;11.45;;;;;;;5.14;59.00;100557.34;3376847;29;20147;-75
2021/12/14 06:59:13;;;;;;;20.58;12.73;;;;;;;5.13;58.91;100561.75;3375793;29;20048;-75
2021/12/14 07:01:30;;;;;;;21.63;12.88;;;;;;;5.13;58.67;100553.00;3374220;29;20124;-75
2021/12/14 07:03:12;;;;;;;20.17;12.48;;;;;;;5.14;58.71;100568.72;3371352;29;20052;-75
2021/12/14 07:04:55;;;;;;;18.75;11.00;;;;;;;5.15;58.68;100559.81;3375625;29;20535;-75
2021/12/14 07:06:40;;;;;;;25.10;11.73;;;;;;;5.20;58.66;100562.06;3373537;29;20135;-75
2021/12/14 07:08:26;;;;;;;22.50;11.90;;;;;;;5.24;58.65;100571.38;3377590;29;20485;-74
2021/12/14 07:10:07;;;;;;;19.73;11.85;;;;;;;5.28;58.64;100569.28;3377014;29;20520;-74
2021/12/14 07:12:13;;;;;;;22.00;13.07;;;;;;;5.38;58.81;100570.13;3386240;29;20049;-74
2021/12/14 07:13:55;;;;;;;21.67;11.23;;;;;;;5.39;58.77;100561.22;3389097;29;20072;-74
2021/12/14 07:15:36;;;;;;;20.88;12.63;;;;;;;5.46;58.52;100572.91;3386453;29;20049;-74
2021/12/14 07:17:37;;;;;;;18.30;11.93;;;;;;;5.55;58.65;100577.38;3386633;29;20053;-75
2021/12/14 07:19:39;;;;;;;24.25;12.25;;;;;;;5.59;58.20;100568.16;3386139;29;20044;-74
2021/12/14 07:21:47;;;;;;;21.90;12.98;;;;;;;5.65;58.48;100585.28;3387348;29;20056;-74
2021/12/14 07:23:32;;;;;;;19.63;12.18;;;;;;;5.60;58.39;100580.44;3385990;29;20048;-73
2021/12/14 07:25:35;;;;;;;23.92;11.70;;;;;;;5.67;58.33;100576.22;3387406;29;20123;-75
2021/12/14 07:27:23;;;;;;;;;;;;;;;5.77;58.16;100575.41;3385965;29;20032;-74
2021/12/14 07:29:04;;;;;;;20.48;12.60;;;;;;;5.75;57.87;100577.34;3382235;29;19923;-74
2021/12/14 07:30:57;;;;;;;20.67;12.15;;;;;;;5.81;58.27;100576.78;3384985;29;20033;-75
2021/12/14 07:32:48;;;;;;;25.23;12.35;;;;;;;5.82;58.11;100573.16;3394260;29;20064;-75
2021/12/14 07:34:29;;;;;;;22.55;12.68;;;;;;;5.80;58.04;100575.09;3391661;29;20044;-75
2021/12/14 07:36:12;;;;;;;26.20;15.48;;;;;;;5.76;58.45;100566.63;3392381;29;20067;-76
2021/12/14 07:37:56;;;;;;;21.33;13.85;;;;;;;5.77;58.49;100575.41;3392584;29;20087;-76
2021/12/14 07:39:37;;;;;;;20.13;12.75;;;;;;;5.75;58.33;100572.88;3390316;29;20060;-75
2021/12/14 07:41:36;;;;;;;21.55;13.70;;;;;;;5.76;58.39;100569.28;3398848;29;20126;-73
2021/12/14 07:43:26;;;;;;;28.52;13.52;;;;;;;5.75;58.20;100575.53;3387636;29;20073;-73
2021/12/14 07:45:08;;;;;;;22.85;13.98;;;;;;;5.79;58.16;100573.44;3387247;29;20468;-74
2021/12/14 07:47:05;;;;;;;21.30;13.10;;;;;;;5.87;58.23;100581.50;3387380;29;20135;-75
2021/12/14 07:48:49;;;;;;;25.75;13.55;;;;;;;5.88;57.95;100583.16;3386873;29;20160;-76
2021/12/14 07:51:00;;;;;;;23.98;12.90;;;;;;;5.97;58.05;100587.63;3387223;29;20044;-76
2021/12/14 07:52:40;;;;;;;22.83;13.75;;;;;;;5.95;57.91;100588.75;3379705;29;20056;-75
2021/12/14 07:54:28;;;;;;;26.95;15.15;;;;;;;5.95;58.11;100584.31;3388221;29;20582;-75
2021/12/14 07:56:21;;;;;;;26.92;13.95;;;;;;;5.97;58.02;100587.63;3390239;29;20036;-74
2021/12/14 07:58:05;;;;;;;24.83;15.07;;;;;;;5.97;57.72;100585.00;3386176;29;20076;-75
2021/12/14 07:59:47;;;;;;;23.05;14.20;;;;;;;5.97;57.95;100582.34;3384087;29;20136;-75
2021/12/14 08:01:28;;;;;;;24.77;14.25;;;;;;;5.98;57.96;100584.00;3383053;29;20100;-76
2021/12/14 08:03:10;;;;;;;23.60;13.65;;;;;;;6.02;57.87;100581.94;3377161;29;20051;-76
2021/12/14 08:05:00;;;;;;;24.45;15.23;;;;;;;6.05;57.85;100579.00;3376905;29;20049;-75
2021/12/14 08:06:50;;;;;;;26.00;15.02;;;;;;;6.11;57.68;100579.22;3377125;29;20077;-75
2021/12/14 08:08:43;;;;;;;28.80;15.45;;;;;;;6.10;57.68;100582.88;3375138;29;20046;-74
2021/12/14 08:10:30;;;;;;;22.27;13.77;;;;;;;6.15;57.71;100586.91;3374553;29;20048;-75
2021/12/14 08:12:12;;;;;;;23.08;13.98;;;;;;;6.17;57.63;100588.44;3376726;29;20044;-75
2021/12/14 08:13:55;;;;;;;29.02;14.05;;;;;;;6.20;57.46;100589.97;3375761;29;20049;-75
2021/12/14 08:15:49;;;;;;;21.83;13.15;;;;;;;6.22;57.45;100590.63;3373167;29;20040;-77
2021/12/14 08:17:29;;;;;;;21.55;13.90;;;;;;;6.25;57.44;100588.53;3375639;29;20592;-74
2021/12/14 08:19:40;;;;;;;18.77;12.80;;;;;;;6.36;57.65;100587.53;3376399;29;20095;-75
2021/12/14 08:21:24;;;;;;;23.65;13.52;;;;;;;6.38;57.33;100582.94;3374996;29;20676;-74
2021/12/14 08:23:32;;;;;;;22.48;13.00;;;;;;;6.46;57.21;100588.31;3372760;29;20040;-73
2021/12/14 08:25:16;;;;;;;24.75;12.90;;;;;;;6.48;57.40;100590.81;3374414;29;20052;-75
2021/12/14 08:27:04;;;;;;;21.23;12.57;;;;;;;6.53;57.26;100586.78;3374522;29;20554;-75
2021/12/14 08:28:53;;;;;;;23.17;14.50;;;;;;;6.58;57.19;100590.78;3376113;29;20192;-75
2021/12/14 08:30:38;;;;;;;27.20;13.20;;;;;;;6.60;57.17;100586.19;3375310;29;20052;-75
2021/12/14 08:32:23;;;;;;;24.40;12.80;;;;;;;6.58;57.04;100585.47;3375806;29;20048;-76
2021/12/14 08:34:11;;;;;;;24.50;13.38;;;;;;;6.61;57.10;100590.47;3374485;29;20036;-75
2021/12/14 08:35:55;;;;;;;19.77;12.13;;;;;;;6.59;56.91;100587.16;3373358;29;20036;-74
2021/12/14 08:37:43;;;;;;;22.00;12.82;;;;;;;6.55;56.95;100583.97;3368833;29;20032;-73
2021/12/14 08:39:28;;;;;;;23.80;13.38;;;;;;;6.55;56.94;100584.78;3362972;29;20072;-77
2021/12/14 08:41:17;;;;;;;21.15;12.77;;;;;;;6.60;56.92;100578.22;3362463;29;20040;-75
2021/12/14 08:43:11;;;;;;;23.55;13.48;;;;;;;6.69;56.88;100582.66;3362332;29;20089;-74
2021/12/14 08:44:57;;;;;;;24.25;13.88;;;;;;;6.80;56.83;100578.97;3376249;29;20051;-74
2021/12/14 08:46:40;;;;;;;24.90;13.73;;;;;;;6.82;56.63;100580.50;3377904;29;20049;-76